Eastern Passage, Canada
Current Conditions -  °F | °C
As of 5:54 AM on Sunday 21 Dec 2014 (Local Time) from CYHZ Reporting Station
Overcast Overcast  
Wind Chill: 28°   Ceiling: 2200
Heat Index: 28°   Visibility: 15mi
Dew Point: 27°   Wind: 3mph
Humidity: 93%   Direction: 20°NNE
Pressure: 30.31"   Gusts: NA
Location:  44.62°N, 63.48°W
Report Text: CYHZ 210954Z 02003KT 15SM OVC022 M02/M03 A3031 RMK SC8 SLP272
Loading
Personal Weather Stations






























Interactive Weather Map New forecast layout! Learn more

10-Day Weather Forecast

Advertisements
Track Severe Weather on mobile